sensor_id;sensor_type;location;lat;lon;timestamp;pressure;altitude;pressure_sealevel;temperature;humidity
26978;BME280;56314;48.088;11.642;2023-07-30T00:01:11;95079.09;;;18.77;81.81
26978;BME280;56314;48.088;11.642;2023-07-30T00:03:36;95090.13;;;18.74;80.53
26978;BME280;56314;48.088;11.642;2023-07-30T00:06:02;95084.81;;;18.66;80.93
26978;BME280;56314;48.088;11.642;2023-07-30T00:08:27;95100.97;;;18.64;81.87
26978;BME280;56314;48.088;11.642;2023-07-30T00:10:53;95104.63;;;18.63;83.05
26978;BME280;56314;48.088;11.642;2023-07-30T00:13:18;95097.84;;;18.60;84.86
26978;BME280;56314;48.088;11.642;2023-07-30T00:15:46;95097.91;;;18.52;84.56
26978;BME280;56314;48.088;11.642;2023-07-30T00:18:12;95097.25;;;18.50;86.00
26978;BME280;56314;48.088;11.642;2023-07-30T00:20:37;95106.75;;;18.44;86.62
26978;BME280;56314;48.088;11.642;2023-07-30T00:23:03;95112.88;;;18.45;86.82
26978;BME280;56314;48.088;11.642;2023-07-30T00:25:28;95112.94;;;18.37;84.45
26978;BME280;56314;48.088;11.642;2023-07-30T00:27:53;95110.09;;;18.38;84.84
26978;BME280;56314;48.088;11.642;2023-07-30T00:30:19;95118.06;;;18.38;84.60
26978;BME280;56314;48.088;11.642;2023-07-30T00:32:44;95121.56;;;18.39;85.41
26978;BME280;56314;48.088;11.642;2023-07-30T00:35:10;95125.22;;;18.38;84.27
26978;BME280;56314;48.088;11.642;2023-07-30T00:37:36;95124.38;;;18.37;84.76
26978;BME280;56314;48.088;11.642;2023-07-30T00:40:02;95117.78;;;18.33;85.68
26978;BME280;56314;48.088;11.642;2023-07-30T00:42:28;95122.59;;;18.29;89.20
26978;BME280;56314;48.088;11.642;2023-07-30T00:44:53;95126.59;;;18.25;87.90
26978;BME280;56314;48.088;11.642;2023-07-30T00:47:19;95124.94;;;18.24;88.44
26978;BME280;56314;48.088;11.642;2023-07-30T00:49:45;95119.31;;;18.19;88.20
26978;BME280;56314;48.088;11.642;2023-07-30T00:52:11;95123.00;;;18.10;88.77
26978;BME280;56314;48.088;11.642;2023-07-30T00:54:36;95118.88;;;18.07;89.64
26978;BME280;56314;48.088;11.642;2023-07-30T00:57:02;95117.22;;;18.06;91.24
26978;BME280;56314;48.088;11.642;2023-07-30T00:59:28;95115.88;;;18.02;89.85
26978;BME280;56314;48.088;11.642;2023-07-30T01:01:53;95113.88;;;18.04;88.78
26978;BME280;56314;48.088;11.642;2023-07-30T01:04:19;95115.56;;;18.05;89.59
26978;BME280;56314;48.088;11.642;2023-07-30T01:06:45;95110.25;;;18.05;89.18
26978;BME280;56314;48.088;11.642;2023-07-30T01:09:10;95111.22;;;18.04;89.14
26978;BME280;56314;48.088;11.642;2023-07-30T01:11:37;95103.59;;;18.01;88.46
26978;BME280;56314;48.088;11.642;2023-07-30T01:14:05;95101.78;;;18.02;88.99
26978;BME280;56314;48.088;11.642;2023-07-30T01:19:04;95105.59;;;17.99;89.38
26978;BME280;56314;48.088;11.642;2023-07-30T01:21:32;95110.91;;;17.91;89.53
26978;BME280;56314;48.088;11.642;2023-07-30T01:23:58;95117.75;;;17.85;90.00
26978;BME280;56314;48.088;11.642;2023-07-30T01:26:27;95121.38;;;17.84;90.08
26978;BME280;56314;48.088;11.642;2023-07-30T01:28:58;95121.09;;;17.79;90.49
26978;BME280;56314;48.088;11.642;2023-07-30T01:31:26;95118.91;;;17.74;90.64
26978;BME280;56314;48.088;11.642;2023-07-30T01:33:54;95111.47;;;17.69;90.92
26978;BME280;56314;48.088;11.642;2023-07-30T01:36:20;95116.47;;;17.64;91.92
26978;BME280;56314;48.088;11.642;2023-07-30T01:38:47;95102.72;;;17.61;91.70
26978;BME280;56314;48.088;11.642;2023-07-30T01:41:13;95105.50;;;17.59;91.54
26978;BME280;56314;48.088;11.642;2023-07-30T01:43:38;95110.31;;;17.64;91.13
26978;BME280;56314;48.088;11.642;2023-07-30T01:46:04;95118.28;;;17.64;91.42
26978;BME280;56314;48.088;11.642;2023-07-30T01:48:29;95109.50;;;17.63;91.20
26978;BME280;56314;48.088;11.642;2023-07-30T01:50:54;95111.31;;;17.63;91.16
26978;BME280;56314;48.088;11.642;2023-07-30T01:53:20;95114.63;;;17.73;90.70
26978;BME280;56314;48.088;11.642;2023-07-30T01:55:45;95111.78;;;17.75;90.21
26978;BME280;56314;48.088;11.642;2023-07-30T01:58:12;95109.13;;;17.75;89.84
26978;BME280;56314;48.088;11.642;2023-07-30T02:00:38;95117.09;;;17.75;89.97
26978;BME280;56314;48.088;11.642;2023-07-30T02:03:04;95108.81;;;17.78;88.67
26978;BME280;56314;48.088;11.642;2023-07-30T02:05:29;95108.97;;;17.76;88.84
26978;BME280;56314;48.088;11.642;2023-07-30T02:07:54;95107.81;;;17.79;88.90
26978;BME280;56314;48.088;11.642;2023-07-30T02:10:20;95102.66;;;17.85;88.89
26978;BME280;56314;48.088;11.642;2023-07-30T02:12:45;95102.31;;;17.80;88.56
26978;BME280;56314;48.088;11.642;2023-07-30T02:15:10;95109.63;;;17.78;88.09
26978;BME280;56314;48.088;11.642;2023-07-30T02:17:36;95111.25;;;17.88;87.59
26978;BME280;56314;48.088;11.642;2023-07-30T02:20:01;95105.13;;;17.87;86.72
26978;BME280;56314;48.088;11.642;2023-07-30T02:22:27;95104.13;;;17.88;86.86
26978;BME280;56314;48.088;11.642;2023-07-30T02:24:52;95110.09;;;17.90;86.32
26978;BME280;56314;48.088;11.642;2023-07-30T02:27:18;95100.09;;;17.92;86.06
26978;BME280;56314;48.088;11.642;2023-07-30T02:29:43;95107.44;;;17.98;86.00
26978;BME280;56314;48.088;11.642;2023-07-30T02:32:08;95101.44;;;17.96;86.04
26978;BME280;56314;48.088;11.642;2023-07-30T02:34:34;95103.13;;;17.97;86.59
26978;BME280;56314;48.088;11.642;2023-07-30T02:36:59;95095.81;;;17.99;86.46
26978;BME280;56314;48.088;11.642;2023-07-30T02:39:24;95092.31;;;17.99;86.44
26978;BME280;56314;48.088;11.642;2023-07-30T02:41:49;95098.13;;;18.03;86.71
26978;BME280;56314;48.088;11.642;2023-07-30T02:44:15;95091.16;;;18.02;86.07
26978;BME280;56314;48.088;11.642;2023-07-30T02:46:40;95088.31;;;18.03;86.26
26978;BME280;56314;48.088;11.642;2023-07-30T02:49:05;95089.50;;;18.00;86.04
26978;BME280;56314;48.088;11.642;2023-07-30T02:51:31;95086.66;;;18.02;86.45
26978;BME280;56314;48.088;11.642;2023-07-30T02:53:57;95101.41;;;18.05;86.07
26978;BME280;56314;48.088;11.642;2023-07-30T02:56:24;95105.91;;;18.04;85.63
26978;BME280;56314;48.088;11.642;2023-07-30T02:58:50;95098.63;;;18.06;85.54
26978;BME280;56314;48.088;11.642;2023-07-30T03:01:15;95107.25;;;18.08;85.89
26978;BME280;56314;48.088;11.642;2023-07-30T03:03:41;95100.94;;;18.09;86.68
26978;BME280;56314;48.088;11.642;2023-07-30T03:06:06;95098.22;;;18.18;85.51
26978;BME280;56314;48.088;11.642;2023-07-30T03:08:32;95100.56;;;18.12;85.42
26978;BME280;56314;48.088;11.642;2023-07-30T03:10:58;95097.09;;;18.12;85.52
26978;BME280;56314;48.088;11.642;2023-07-30T03:13:24;95105.06;;;18.12;85.33
26978;BME280;56314;48.088;11.642;2023-07-30T03:15:50;95109.38;;;18.13;86.28
26978;BME280;56314;48.088;11.642;2023-07-30T03:18:15;95118.88;;;18.07;85.91
26978;BME280;56314;48.088;11.642;2023-07-30T03:20:40;95115.84;;;18.10;84.79
26978;BME280;56314;48.088;11.642;2023-07-30T03:23:05;95122.66;;;18.13;85.31
26978;BME280;56314;48.088;11.642;2023-07-30T03:25:31;95131.44;;;18.13;85.46
26978;BME280;56314;48.088;11.642;2023-07-30T03:27:56;95127.78;;;18.14;84.48
26978;BME280;56314;48.088;11.642;2023-07-30T03:30:21;95125.31;;;18.13;84.74
26978;BME280;56314;48.088;11.642;2023-07-30T03:32:47;95139.28;;;18.15;85.67
26978;BME280;56314;48.088;11.642;2023-07-30T03:35:12;95136.63;;;18.15;86.90
26978;BME280;56314;48.088;11.642;2023-07-30T03:37:37;95134.25;;;18.20;87.11
26978;BME280;56314;48.088;11.642;2023-07-30T03:40:03;95127.78;;;18.14;87.94
26978;BME280;56314;48.088;11.642;2023-07-30T03:42:29;95133.81;;;18.08;88.80
26978;BME280;56314;48.088;11.642;2023-07-30T03:44:54;95130.66;;;18.05;89.67
26978;BME280;56314;48.088;11.642;2023-07-30T03:47:19;95125.03;;;17.99;90.57
26978;BME280;56314;48.088;11.642;2023-07-30T03:49:44;95139.63;;;17.95;91.38
26978;BME280;56314;48.088;11.642;2023-07-30T03:52:10;95137.66;;;17.89;92.26
26978;BME280;56314;48.088;11.642;2023-07-30T03:54:35;95138.69;;;17.80;92.23
26978;BME280;56314;48.088;11.642;2023-07-30T03:57:00;95145.31;;;17.76;92.92
26978;BME280;56314;48.088;11.642;2023-07-30T03:59:26;95152.94;;;17.70;93.39
26978;BME280;56314;48.088;11.642;2023-07-30T04:01:51;95156.13;;;17.66;94.23
26978;BME280;56314;48.088;11.642;2023-07-30T04:04:16;95153.63;;;17.64;94.85
26978;BME280;56314;48.088;11.642;2023-07-30T04:06:42;95146.97;;;17.68;95.64
26978;BME280;56314;48.088;11.642;2023-07-30T04:09:07;95150.00;;;17.65;95.76
26978;BME280;56314;48.088;11.642;2023-07-30T04:11:33;95148.34;;;17.64;96.35
26978;BME280;56314;48.088;11.642;2023-07-30T04:13:58;95148.19;;;17.58;96.47
26978;BME280;56314;48.088;11.642;2023-07-30T04:16:24;95148.31;;;17.56;96.51
26978;BME280;56314;48.088;11.642;2023-07-30T04:18:49;95149.16;;;17.57;96.82
26978;BME280;56314;48.088;11.642;2023-07-30T04:21:14;95146.84;;;17.53;97.50
26978;BME280;56314;48.088;11.642;2023-07-30T04:23:40;95149.50;;;17.53;97.33
26978;BME280;56314;48.088;11.642;2023-07-30T04:26:06;95149.97;;;17.57;97.46
26978;BME280;56314;48.088;11.642;2023-07-30T04:28:32;95156.81;;;17.60;97.78
26978;BME280;56314;48.088;11.642;2023-07-30T04:30:58;95154.63;;;17.63;97.58
26978;BME280;56314;48.088;11.642;2023-07-30T04:33:23;95169.41;;;17.66;97.44
26978;BME280;56314;48.088;11.642;2023-07-30T04:35:49;95166.09;;;17.72;97.66
26978;BME280;56314;48.088;11.642;2023-07-30T04:38:14;95166.91;;;17.73;97.25
26978;BME280;56314;48.088;11.642;2023-07-30T04:40:39;95170.22;;;17.75;95.80
26978;BME280;56314;48.088;11.642;2023-07-30T04:43:05;95168.53;;;17.82;92.55
26978;BME280;56314;48.088;11.642;2023-07-30T04:45:30;95169.53;;;17.89;93.07
26978;BME280;56314;48.088;11.642;2023-07-30T04:47:56;95175.16;;;17.94;91.06
26978;BME280;56314;48.088;11.642;2023-07-30T04:50:21;95174.50;;;18.00;89.57
26978;BME280;56314;48.088;11.642;2023-07-30T04:52:46;95179.78;;;18.09;89.51
26978;BME280;56314;48.088;11.642;2023-07-30T04:55:12;95183.44;;;18.16;88.20
26978;BME280;56314;48.088;11.642;2023-07-30T04:57:37;95174.69;;;18.47;86.82
26978;BME280;56314;48.088;11.642;2023-07-30T05:00:03;95181.53;;;18.73;83.19
26978;BME280;56314;48.088;11.642;2023-07-30T05:02:29;95172.50;;;18.82;82.19
26978;BME280;56314;48.088;11.642;2023-07-30T05:04:54;95179.16;;;18.86;81.21
26978;BME280;56314;48.088;11.642;2023-07-30T05:07:20;95188.78;;;18.87;81.73
26978;BME280;56314;48.088;11.642;2023-07-30T05:09:45;95186.28;;;18.94;80.95
26978;BME280;56314;48.088;11.642;2023-07-30T05:12:11;95192.59;;;18.85;81.25
26978;BME280;56314;48.088;11.642;2023-07-30T05:14:36;95198.44;;;18.80;81.06
26978;BME280;56314;48.088;11.642;2023-07-30T05:17:02;95194.84;;;18.73;81.58
26978;BME280;56314;48.088;11.642;2023-07-30T05:19:28;95198.66;;;18.70;81.53
26978;BME280;56314;48.088;11.642;2023-07-30T05:21:53;95194.19;;;19.26;79.16
26978;BME280;56314;48.088;11.642;2023-07-30T05:24:19;95189.56;;;20.19;75.57
26978;BME280;56314;48.088;11.642;2023-07-30T05:26:44;95183.31;;;21.09;70.79
26978;BME280;56314;48.088;11.642;2023-07-30T05:29:09;95175.47;;;21.94;66.57
26978;BME280;56314;48.088;11.642;2023-07-30T05:31:35;95185.63;;;22.82;63.17
26978;BME280;56314;48.088;11.642;2023-07-30T05:34:00;95182.31;;;23.56;59.27
26978;BME280;56314;48.088;11.642;2023-07-30T05:36:25;95183.09;;;24.37;56.28
26978;BME280;56314;48.088;11.642;2023-07-30T05:38:51;95188.69;;;24.94;53.62
26978;BME280;56314;48.088;11.642;2023-07-30T05:41:16;95187.66;;;25.34;52.18
26978;BME280;56314;48.088;11.642;2023-07-30T05:43:41;95190.81;;;25.63;50.88
26978;BME280;56314;48.088;11.642;2023-07-30T05:46:07;95188.69;;;25.97;50.08
26978;BME280;56314;48.088;11.642;2023-07-30T05:48:33;95192.63;;;25.94;49.63
26978;BME280;56314;48.088;11.642;2023-07-30T05:50:58;95187.00;;;26.47;48.50
26978;BME280;56314;48.088;11.642;2023-07-30T05:53:24;95183.75;;;27.12;47.07
26978;BME280;56314;48.088;11.642;2023-07-30T05:55:49;95186.59;;;27.17;46.70
26978;BME280;56314;48.088;11.642;2023-07-30T05:58:15;95181.28;;;27.72;45.86
26978;BME280;56314;48.088;11.642;2023-07-30T06:00:41;95179.00;;;28.23;44.82
26978;BME280;56314;48.088;11.642;2023-07-30T06:03:06;95182.88;;;28.15;43.67
26978;BME280;56314;48.088;11.642;2023-07-30T06:05:41;95186.16;;;28.17;43.53
26978;BME280;56314;48.088;11.642;2023-07-30T06:08:07;95181.16;;;28.85;42.87
26978;BME280;56314;48.088;11.642;2023-07-30T06:10:39;95187.94;;;29.00;42.78
26978;BME280;56314;48.088;11.642;2023-07-30T06:13:05;95178.38;;;29.09;41.60
26978;BME280;56314;48.088;11.642;2023-07-30T06:15:31;95191.59;;;29.35;40.99
26978;BME280;56314;48.088;11.642;2023-07-30T06:17:57;95181.75;;;29.74;40.66
26978;BME280;56314;48.088;11.642;2023-07-30T06:20:22;95182.91;;;30.13;39.55
26978;BME280;56314;48.088;11.642;2023-07-30T06:22:47;95174.44;;;30.26;40.17
26978;BME280;56314;48.088;11.642;2023-07-30T06:25:13;95182.78;;;30.59;38.87
26978;BME280;56314;48.088;11.642;2023-07-30T06:27:38;95184.91;;;30.56;38.77
26978;BME280;56314;48.088;11.642;2023-07-30T06:30:04;95180.09;;;30.81;37.66
26978;BME280;56314;48.088;11.642;2023-07-30T06:32:29;95181.72;;;30.82;37.53
26978;BME280;56314;48.088;11.642;2023-07-30T06:34:55;95191.38;;;31.17;37.19
26978;BME280;56314;48.088;11.642;2023-07-30T06:37:20;95194.84;;;31.12;37.82
26978;BME280;56314;48.088;11.642;2023-07-30T06:39:45;95188.28;;;31.30;36.25
26978;BME280;56314;48.088;11.642;2023-07-30T06:42:11;95193.50;;;31.65;36.04
26978;BME280;56314;48.088;11.642;2023-07-30T06:44:36;95186.72;;;31.67;36.20
26978;BME280;56314;48.088;11.642;2023-07-30T06:47:01;95201.59;;;31.87;35.86
26978;BME280;56314;48.088;11.642;2023-07-30T06:49:27;95191.28;;;31.61;35.93
26978;BME280;56314;48.088;11.642;2023-07-30T06:51:52;95193.13;;;31.56;36.06
26978;BME280;56314;48.088;11.642;2023-07-30T06:54:17;95191.69;;;31.70;35.86
26978;BME280;56314;48.088;11.642;2023-07-30T06:56:43;95190.16;;;32.17;35.81
26978;BME280;56314;48.088;11.642;2023-07-30T06:59:08;95184.41;;;32.14;34.98
26978;BME280;56314;48.088;11.642;2023-07-30T07:01:33;95181.72;;;32.51;34.17
26978;BME280;56314;48.088;11.642;2023-07-30T07:03:59;95182.56;;;32.62;34.16
26978;BME280;56314;48.088;11.642;2023-07-30T07:06:24;95179.91;;;32.67;33.80
26978;BME280;56314;48.088;11.642;2023-07-30T07:08:49;95196.47;;;31.63;35.32
26978;BME280;56314;48.088;11.642;2023-07-30T07:11:15;95194.75;;;31.07;37.24
26978;BME280;56314;48.088;11.642;2023-07-30T07:13:40;95200.84;;;31.14;37.07
26978;BME280;56314;48.088;11.642;2023-07-30T07:16:05;95203.63;;;30.58;37.30
26978;BME280;56314;48.088;11.642;2023-07-30T07:18:31;95208.41;;;30.17;38.64
26978;BME280;56314;48.088;11.642;2023-07-30T07:20:56;95202.34;;;29.92;39.38
26978;BME280;56314;48.088;11.642;2023-07-30T07:23:22;95199.63;;;29.75;39.26
26978;BME280;56314;48.088;11.642;2023-07-30T07:25:47;95203.88;;;29.71;40.15
26978;BME280;56314;48.088;11.642;2023-07-30T07:28:12;95200.13;;;29.02;41.10
26978;BME280;56314;48.088;11.642;2023-07-30T07:30:38;95217.38;;;28.72;42.36
26978;BME280;56314;48.088;11.642;2023-07-30T07:33:03;95208.84;;;29.05;40.97
26978;BME280;56314;48.088;11.642;2023-07-30T07:35:30;95201.75;;;29.73;40.39
26978;BME280;56314;48.088;11.642;2023-07-30T07:37:56;95198.63;;;30.67;39.52
26978;BME280;56314;48.088;11.642;2023-07-30T07:40:21;95204.16;;;31.44;36.23
26978;BME280;56314;48.088;11.642;2023-07-30T07:42:47;95197.69;;;31.23;36.25
26978;BME280;56314;48.088;11.642;2023-07-30T07:45:12;95208.13;;;29.84;38.21
26978;BME280;56314;48.088;11.642;2023-07-30T07:47:37;95219.94;;;28.20;41.14
26978;BME280;56314;48.088;11.642;2023-07-30T07:50:03;95212.19;;;28.59;42.05
26978;BME280;56314;48.088;11.642;2023-07-30T07:52:28;95207.94;;;28.63;41.58
26978;BME280;56314;48.088;11.642;2023-07-30T07:54:54;95208.75;;;28.87;41.49
26978;BME280;56314;48.088;11.642;2023-07-30T07:57:19;95217.22;;;28.67;40.47
26978;BME280;56314;48.088;11.642;2023-07-30T07:59:44;95228.28;;;27.64;42.87
26978;BME280;56314;48.088;11.642;2023-07-30T08:02:11;95230.31;;;26.82;44.86
26978;BME280;56314;48.088;11.642;2023-07-30T08:04:37;95228.78;;;27.42;43.35
26978;BME280;56314;48.088;11.642;2023-07-30T08:07:03;95229.56;;;26.75;44.02
26978;BME280;56314;48.088;11.642;2023-07-30T08:09:29;95237.38;;;25.89;47.18
26978;BME280;56314;48.088;11.642;2023-07-30T08:11:54;95224.34;;;26.80;45.65
26978;BME280;56314;48.088;11.642;2023-07-30T08:14:20;95216.66;;;28.77;43.21
26978;BME280;56314;48.088;11.642;2023-07-30T08:16:45;95211.09;;;30.34;38.95
26978;BME280;56314;48.088;11.642;2023-07-30T08:19:10;95205.41;;;30.92;37.55
26978;BME280;56314;48.088;11.642;2023-07-30T08:21:36;95211.47;;;31.71;35.93
26978;BME280;56314;48.088;11.642;2023-07-30T08:24:02;95218.28;;;32.01;35.17
26978;BME280;56314;48.088;11.642;2023-07-30T08:26:27;95220.84;;;30.69;36.27
26978;BME280;56314;48.088;11.642;2023-07-30T08:28:53;95230.84;;;28.96;39.86
26978;BME280;56314;48.088;11.642;2023-07-30T08:31:18;95236.97;;;27.66;41.00
26978;BME280;56314;48.088;11.642;2023-07-30T08:33:43;95232.09;;;26.51;44.57
26978;BME280;56314;48.088;11.642;2023-07-30T08:36:09;95225.50;;;27.83;41.77
26978;BME280;56314;48.088;11.642;2023-07-30T08:38:34;95203.34;;;29.40;38.35
26978;BME280;56314;48.088;11.642;2023-07-30T08:40:59;95205.41;;;29.67;38.22
26978;BME280;56314;48.088;11.642;2023-07-30T08:43:25;95202.88;;;29.77;38.83
26978;BME280;56314;48.088;11.642;2023-07-30T08:45:51;95200.06;;;30.97;36.92
26978;BME280;56314;48.088;11.642;2023-07-30T08:48:16;95192.53;;;31.76;35.86
26978;BME280;56314;48.088;11.642;2023-07-30T08:50:43;95190.56;;;32.31;33.05
26978;BME280;56314;48.088;11.642;2023-07-30T08:53:09;95195.47;;;32.02;33.54
26978;BME280;56314;48.088;11.642;2023-07-30T08:55:35;95204.47;;;30.24;36.40
26978;BME280;56314;48.088;11.642;2023-07-30T08:58:01;95207.13;;;28.51;39.25
26978;BME280;56314;48.088;11.642;2023-07-30T09:00:31;95210.78;;;28.21;40.44
26978;BME280;56314;48.088;11.642;2023-07-30T09:03:00;95190.22;;;29.20;38.39
26978;BME280;56314;48.088;11.642;2023-07-30T09:05:26;95193.13;;;28.90;38.58
26978;BME280;56314;48.088;11.642;2023-07-30T09:07:55;95188.53;;;28.90;37.21
26978;BME280;56314;48.088;11.642;2023-07-30T09:10:21;95189.28;;;29.14;37.80
26978;BME280;56314;48.088;11.642;2023-07-30T09:12:55;95186.72;;;30.34;35.38
26978;BME280;56314;48.088;11.642;2023-07-30T09:15:33;95186.47;;;31.14;33.09
26978;BME280;56314;48.088;11.642;2023-07-30T09:18:00;95174.69;;;32.18;32.33
26978;BME280;56314;48.088;11.642;2023-07-30T09:20:26;95172.31;;;32.75;31.65
26978;BME280;56314;48.088;11.642;2023-07-30T09:22:52;95163.72;;;32.98;33.90
26978;BME280;56314;48.088;11.642;2023-07-30T09:25:20;95154.91;;;33.55;31.97
26978;BME280;56314;48.088;11.642;2023-07-30T09:27:54;95159.31;;;34.07;31.25
26978;BME280;56314;48.088;11.642;2023-07-30T09:30:23;95157.88;;;34.57;31.30
26978;BME280;56314;48.088;11.642;2023-07-30T09:32:51;95164.16;;;34.57;29.18
26978;BME280;56314;48.088;11.642;2023-07-30T09:35:18;95158.41;;;33.29;30.28
26978;BME280;56314;48.088;11.642;2023-07-30T09:37:44;95162.53;;;33.42;31.41
26978;BME280;56314;48.088;11.642;2023-07-30T09:40:11;95159.28;;;33.66;31.46
26978;BME280;56314;48.088;11.642;2023-07-30T09:42:45;95157.41;;;33.67;29.81
26978;BME280;56314;48.088;11.642;2023-07-30T09:45:22;95155.50;;;34.09;30.70
26978;BME280;56314;48.088;11.642;2023-07-30T09:47:53;95157.41;;;33.92;30.41
26978;BME280;56314;48.088;11.642;2023-07-30T09:50:19;95163.09;;;33.81;29.09
26978;BME280;56314;48.088;11.642;2023-07-30T09:52:45;95167.88;;;33.16;30.05
26978;BME280;56314;48.088;11.642;2023-07-30T09:55:11;95157.47;;;32.88;30.02
26978;BME280;56314;48.088;11.642;2023-07-30T09:57:37;95154.25;;;33.06;30.30
26978;BME280;56314;48.088;11.642;2023-07-30T10:00:04;95159.56;;;31.62;31.99
26978;BME280;56314;48.088;11.642;2023-07-30T10:02:32;95157.75;;;30.96;34.04
26978;BME280;56314;48.088;11.642;2023-07-30T10:05:00;95154.84;;;31.52;33.64
26978;BME280;56314;48.088;11.642;2023-07-30T10:07:28;95157.63;;;31.57;34.52
26978;BME280;56314;48.088;11.642;2023-07-30T10:09:58;95171.28;;;30.51;34.32
26978;BME280;56314;48.088;11.642;2023-07-30T10:12:29;95188.47;;;29.14;36.63
26978;BME280;56314;48.088;11.642;2023-07-30T10:14:56;95175.34;;;28.29;37.84
26978;BME280;56314;48.088;11.642;2023-07-30T10:17:21;95180.72;;;28.05;39.64
26978;BME280;56314;48.088;11.642;2023-07-30T10:19:48;95188.41;;;27.66;40.10
26978;BME280;56314;48.088;11.642;2023-07-30T10:24:40;95190.72;;;26.46;47.16
26978;BME280;56314;48.088;11.642;2023-07-30T10:27:07;95214.31;;;25.74;52.20
26978;BME280;56314;48.088;11.642;2023-07-30T10:29:34;95241.34;;;25.02;52.51
26978;BME280;56314;48.088;11.642;2023-07-30T10:32:00;95226.66;;;24.19;55.28
26978;BME280;56314;48.088;11.642;2023-07-30T10:34:27;95231.38;;;23.56;59.58
26978;BME280;56314;48.088;11.642;2023-07-30T10:37:08;95236.16;;;23.05;62.67
26978;BME280;56314;48.088;11.642;2023-07-30T10:39:33;95225.34;;;23.41;63.35
26978;BME280;56314;48.088;11.642;2023-07-30T10:42:00;95214.78;;;24.87;63.12
26978;BME280;56314;48.088;11.642;2023-07-30T10:44:35;95211.63;;;26.00;57.85
26978;BME280;56314;48.088;11.642;2023-07-30T10:47:01;95204.69;;;26.17;56.78
26978;BME280;56314;48.088;11.642;2023-07-30T10:49:28;95193.72;;;26.56;58.69
26978;BME280;56314;48.088;11.642;2023-07-30T10:51:55;95188.63;;;27.03;55.29
26978;BME280;56314;48.088;11.642;2023-07-30T10:54:22;95187.94;;;27.39;51.50
26978;BME280;56314;48.088;11.642;2023-07-30T10:56:47;95179.50;;;27.65;48.14
26978;BME280;56314;48.088;11.642;2023-07-30T10:59:14;95178.19;;;27.56;48.99
26978;BME280;56314;48.088;11.642;2023-07-30T11:01:42;95170.50;;;28.07;47.70
26978;BME280;56314;48.088;11.642;2023-07-30T11:04:19;95166.50;;;28.57;45.74
26978;BME280;56314;48.088;11.642;2023-07-30T11:06:46;95163.66;;;28.64;42.42
26978;BME280;56314;48.088;11.642;2023-07-30T11:09:22;95159.69;;;28.67;43.27
26978;BME280;56314;48.088;11.642;2023-07-30T11:11:50;95168.50;;;28.74;43.98
26978;BME280;56314;48.088;11.642;2023-07-30T11:14:20;95177.94;;;29.00;45.09
26978;BME280;56314;48.088;11.642;2023-07-30T11:16:53;95168.88;;;29.07;42.17
26978;BME280;56314;48.088;11.642;2023-07-30T11:19:18;95169.09;;;29.46;42.17
26978;BME280;56314;48.088;11.642;2023-07-30T11:21:48;95168.13;;;30.20;41.04
26978;BME280;56314;48.088;11.642;2023-07-30T11:24:14;95165.72;;;30.41;38.72
26978;BME280;56314;48.088;11.642;2023-07-30T11:26:40;95166.66;;;29.95;38.32
26978;BME280;56314;48.088;11.642;2023-07-30T11:29:19;95167.94;;;29.93;38.12
26978;BME280;56314;48.088;11.642;2023-07-30T11:31:46;95164.78;;;30.52;37.59
26978;BME280;56314;48.088;11.642;2023-07-30T11:34:15;95173.53;;;30.99;37.03
26978;BME280;56314;48.088;11.642;2023-07-30T11:36:43;95170.28;;;31.52;36.20
26978;BME280;56314;48.088;11.642;2023-07-30T11:39:09;95162.22;;;31.29;34.61
26978;BME280;56314;48.088;11.642;2023-07-30T11:41:35;95178.28;;;30.30;36.82
26978;BME280;56314;48.088;11.642;2023-07-30T11:44:01;95162.19;;;29.38;35.92
26978;BME280;56314;48.088;11.642;2023-07-30T11:46:26;95180.88;;;29.40;38.46
26978;BME280;56314;48.088;11.642;2023-07-30T11:48:53;95182.13;;;28.79;37.73
26978;BME280;56314;48.088;11.642;2023-07-30T11:51:35;95179.59;;;28.25;37.90
26978;BME280;56314;48.088;11.642;2023-07-30T11:54:01;95186.81;;;28.01;38.70
26978;BME280;56314;48.088;11.642;2023-07-30T11:56:31;95181.09;;;28.33;38.90
26978;BME280;56314;48.088;11.642;2023-07-30T11:59:05;95167.06;;;28.71;38.53
26978;BME280;56314;48.088;11.642;2023-07-30T12:01:32;95183.19;;;28.78;38.73
26978;BME280;56314;48.088;11.642;2023-07-30T12:04:00;95190.72;;;29.05;40.01
26978;BME280;56314;48.088;11.642;2023-07-30T12:09:34;95194.47;;;28.27;43.36
26978;BME280;56314;48.088;11.642;2023-07-30T12:12:01;95186.81;;;28.48;40.84
26978;BME280;56314;48.088;11.642;2023-07-30T12:17:14;95181.59;;;29.23;40.02
26978;BME280;56314;48.088;11.642;2023-07-30T12:19:39;95188.28;;;29.61;39.15
26978;BME280;56314;48.088;11.642;2023-07-30T12:22:05;95183.44;;;29.80;38.83
26978;BME280;56314;48.088;11.642;2023-07-30T12:24:31;95182.38;;;29.82;39.57
26978;BME280;56314;48.088;11.642;2023-07-30T12:26:56;95184.66;;;29.73;38.44
26978;BME280;56314;48.088;11.642;2023-07-30T12:29:21;95180.84;;;29.11;38.93
26978;BME280;56314;48.088;11.642;2023-07-30T12:31:47;95182.84;;;28.39;40.88
26978;BME280;56314;48.088;11.642;2023-07-30T12:34:12;95198.47;;;28.13;41.61
26978;BME280;56314;48.088;11.642;2023-07-30T12:36:38;95209.06;;;27.72;42.02
26978;BME280;56314;48.088;11.642;2023-07-30T12:39:03;95209.44;;;27.45;42.59
26978;BME280;56314;48.088;11.642;2023-07-30T12:41:29;95214.63;;;27.47;44.48
26978;BME280;56314;48.088;11.642;2023-07-30T12:43:55;95216.19;;;27.36;44.07
26978;BME280;56314;48.088;11.642;2023-07-30T12:46:24;95214.53;;;27.35;43.31
26978;BME280;56314;48.088;11.642;2023-07-30T12:48:52;95217.44;;;27.03;43.68
26978;BME280;56314;48.088;11.642;2023-07-30T12:51:17;95226.13;;;26.86;45.03
26978;BME280;56314;48.088;11.642;2023-07-30T12:53:43;95225.81;;;26.95;45.99
26978;BME280;56314;48.088;11.642;2023-07-30T12:56:08;95213.47;;;27.24;45.17